createdAt,value
2023-04-17T00:01:24.028Z,99107.91
2023-04-17T00:03:54.691Z,99105.59
2023-04-17T00:06:24.177Z,99101.22
2023-04-17T00:08:52.138Z,99112.13
2023-04-17T00:11:21.156Z,99103.13
2023-04-17T00:13:51.803Z,99108.41
2023-04-17T00:16:20.160Z,99111.53
2023-04-17T00:18:48.091Z,99111.16
2023-04-17T00:21:17.555Z,99106.00
2023-04-17T00:23:45.954Z,99105.09
2023-04-17T00:26:13.780Z,99105.25
2023-04-17T00:28:43.944Z,99099.81
2023-04-17T00:31:12.486Z,99103.22
2023-04-17T00:33:42.953Z,99103.09
2023-04-17T00:36:13.508Z,99099.06
2023-04-17T00:38:43.154Z,99096.19
2023-04-17T00:41:11.683Z,99101.91
2023-04-17T00:43:40.985Z,99099.03
2023-04-17T00:46:11.329Z,99098.91
2023-04-17T00:48:41.010Z,99086.66
2023-04-17T00:51:09.447Z,99092.41
2023-04-17T00:53:39.004Z,99093.41
2023-04-17T00:56:09.351Z,99083.28
2023-04-17T00:58:38.570Z,99082.97
2023-04-17T01:01:07.458Z,99087.75
2023-04-17T01:03:36.524Z,99091.69
2023-04-17T01:06:07.741Z,99086.25
2023-04-17T01:08:43.713Z,99081.66
2023-04-17T01:11:13.637Z,99076.25
2023-04-17T01:13:46.622Z,99071.59
2023-04-17T01:16:15.054Z,99072.38
2023-04-17T01:18:43.328Z,99072.53
2023-04-17T01:21:11.678Z,99071.59
2023-04-17T01:24:10.920Z,99074.31
2023-04-17T01:26:39.865Z,99080.84
2023-04-17T01:29:08.204Z,99068.38
2023-04-17T01:31:36.302Z,99078.41
2023-04-17T01:34:04.145Z,99086.47
2023-04-17T01:36:33.044Z,99094.34
2023-04-17T01:39:00.988Z,99085.13
2023-04-17T01:41:30.521Z,99088.84
2023-04-17T01:43:58.647Z,99084.59
2023-04-17T01:46:27.400Z,99083.91
2023-04-17T01:49:01.750Z,99080.63
2023-04-17T01:51:29.985Z,99085.00
2023-04-17T01:54:02.548Z,99073.34
2023-04-17T01:56:32.237Z,99078.53
2023-04-17T01:59:00.444Z,99081.25
2023-04-17T02:01:28.564Z,99075.91
2023-04-17T02:03:57.387Z,99072.19
2023-04-17T02:06:26.924Z,99072.00
2023-04-17T02:08:55.322Z,99073.81
2023-04-17T02:11:23.317Z,99074.56
2023-04-17T02:13:53.569Z,99075.94
2023-04-17T02:16:22.741Z,99081.13
2023-04-17T02:18:51.440Z,99085.25
2023-04-17T02:21:19.579Z,99076.38
2023-04-17T02:23:50.132Z,99081.88
2023-04-17T02:26:18.420Z,99085.06
2023-04-17T02:28:46.652Z,99088.00
2023-04-17T02:31:16.461Z,99069.28
2023-04-17T02:33:47.285Z,99079.97
2023-04-17T02:36:16.229Z,99082.41
2023-04-17T02:38:45.929Z,99082.94
2023-04-17T02:41:14.764Z,99082.22
2023-04-17T02:43:42.708Z,99082.09
2023-04-17T02:46:11.619Z,99086.00
2023-04-17T02:48:41.201Z,99083.28
2023-04-17T02:51:09.261Z,99076.16
2023-04-17T02:53:39.524Z,99079.38
2023-04-17T02:56:07.902Z,99079.84
2023-04-17T02:58:37.569Z,99074.06
2023-04-17T03:01:07.958Z,99081.44
2023-04-17T03:03:42.685Z,99077.88
2023-04-17T03:06:14.813Z,99079.66
2023-04-17T03:08:43.488Z,99081.66
2023-04-17T03:11:11.620Z,99080.84
2023-04-17T03:13:39.863Z,99078.59
2023-04-17T03:16:08.408Z,99074.31
2023-04-17T03:18:42.466Z,99080.78
2023-04-17T03:21:10.792Z,99085.47
2023-04-17T03:23:38.989Z,99079.00
2023-04-17T03:26:09.088Z,99078.34
2023-04-17T03:28:37.892Z,99074.44
2023-04-17T03:31:06.489Z,99079.16
2023-04-17T03:33:37.862Z,99075.78
2023-04-17T03:36:08.207Z,99082.63
2023-04-17T03:38:39.260Z,99081.06
2023-04-17T03:41:10.150Z,99082.94
2023-04-17T03:43:38.374Z,99087.50
2023-04-17T03:46:10.963Z,99087.94
2023-04-17T03:48:39.919Z,99095.41
2023-04-17T03:51:09.298Z,99084.28
2023-04-17T03:53:38.522Z,99093.13
2023-04-17T03:56:10.078Z,99082.78
2023-04-17T03:58:41.976Z,99084.81
2023-04-17T04:01:14.765Z,99091.00
2023-04-17T04:03:59.162Z,99095.19
2023-04-17T04:06:30.023Z,99089.50
2023-04-17T04:08:58.992Z,99089.59
2023-04-17T04:11:27.158Z,99094.53
2023-04-17T04:13:55.943Z,99093.38
2023-04-17T04:16:23.868Z,99102.94
2023-04-17T04:18:55.577Z,99108.06
2023-04-17T04:21:24.302Z,99108.97
2023-04-17T04:23:53.675Z,99108.59
2023-04-17T04:26:24.402Z,99110.84
2023-04-17T04:28:56.625Z,99106.25
2023-04-17T04:31:50.832Z,99106.13
2023-04-17T04:34:25.317Z,99104.22
2023-04-17T04:36:55.337Z,99113.69
2023-04-17T04:39:41.223Z,99110.63
2023-04-17T04:42:11.323Z,99111.06
2023-04-17T04:44:53.363Z,99118.34
2023-04-17T04:47:23.084Z,99111.03
2023-04-17T04:49:52.151Z,99117.06
2023-04-17T04:52:22.843Z,99115.09
2023-04-17T04:54:55.793Z,99115.00
2023-04-17T04:57:24.699Z,99118.19
2023-04-17T04:59:56.269Z,99121.31
2023-04-17T05:02:32.942Z,99120.03
2023-04-17T05:05:02.017Z,99121.44
2023-04-17T05:07:33.316Z,99122.75
2023-04-17T05:10:03.634Z,99131.22
2023-04-17T05:12:36.067Z,99125.94
2023-04-17T05:15:08.213Z,99125.00
2023-04-17T05:17:36.522Z,99123.28
2023-04-17T05:20:06.812Z,99130.97
2023-04-17T05:22:37.805Z,99125.13
2023-04-17T05:25:12.165Z,99129.72
2023-04-17T05:27:40.476Z,99132.44
2023-04-17T05:30:10.177Z,99122.09
2023-04-17T05:32:38.196Z,99124.25
2023-04-17T05:35:27.998Z,99124.53
2023-04-17T05:37:56.844Z,99129.78
2023-04-17T05:40:26.702Z,99135.19
2023-04-17T05:42:54.757Z,99131.84
2023-04-17T05:45:24.953Z,99139.72
2023-04-17T05:47:53.741Z,99135.56
2023-04-17T05:50:22.058Z,99140.16
2023-04-17T05:52:50.453Z,99140.63
2023-04-17T05:55:20.293Z,99142.72
2023-04-17T05:57:53.428Z,99139.41
2023-04-17T06:00:23.195Z,99142.59
2023-04-17T06:02:57.301Z,99142.56
2023-04-17T06:05:43.407Z,99147.72
2023-04-17T06:08:11.289Z,99143.84
2023-04-17T06:10:39.136Z,99143.59
2023-04-17T06:13:08.499Z,99140.00
2023-04-17T06:15:37.224Z,99145.75
2023-04-17T06:18:05.511Z,99144.69
2023-04-17T06:20:33.395Z,99147.63
2023-04-17T06:23:03.592Z,99151.88
2023-04-17T06:25:31.834Z,99159.59
2023-04-17T06:27:59.698Z,99152.13
2023-04-17T06:30:29.001Z,99154.69
2023-04-17T06:32:58.521Z,99155.53
2023-04-17T06:35:26.617Z,99155.63
2023-04-17T06:38:00.395Z,99160.66
2023-04-17T06:40:28.542Z,99160.25
2023-04-17T06:42:57.295Z,99159.66
2023-04-17T06:45:30.415Z,99157.97
2023-04-17T06:47:58.343Z,99157.19
2023-04-17T06:50:26.438Z,99160.59
2023-04-17T06:52:54.706Z,99169.38
2023-04-17T06:55:22.637Z,99162.13
2023-04-17T06:57:50.464Z,99162.13
2023-04-17T07:00:19.585Z,99170.06
2023-04-17T07:02:49.403Z,99160.06
2023-04-17T07:05:17.541Z,99156.84
2023-04-17T07:07:45.418Z,99169.66
2023-04-17T07:10:15.873Z,99169.13
2023-04-17T07:12:43.951Z,99172.69
2023-04-17T07:15:12.560Z,99172.97
2023-04-17T07:17:40.556Z,99177.97
2023-04-17T07:20:11.024Z,99182.38
2023-04-17T07:22:38.987Z,99180.88
2023-04-17T07:25:08.399Z,99178.44
2023-04-17T07:27:38.376Z,99176.19
2023-04-17T07:30:08.678Z,99183.25
2023-04-17T07:32:37.529Z,99180.03
2023-04-17T07:35:06.501Z,99180.97
2023-04-17T07:37:37.154Z,99184.44
2023-04-17T07:40:10.340Z,99179.25
2023-04-17T07:42:38.424Z,99181.69
2023-04-17T07:45:07.331Z,99185.72
2023-04-17T07:47:35.381Z,99187.94
2023-04-17T07:50:03.667Z,99190.38
2023-04-17T07:52:31.826Z,99186.19
2023-04-17T07:55:02.057Z,99190.78
2023-04-17T07:57:30.172Z,99190.47
2023-04-17T07:59:58.192Z,99196.75
2023-04-17T08:02:26.828Z,99196.09
2023-04-17T08:04:55.595Z,99191.19
2023-04-17T08:07:27.118Z,99194.28
2023-04-17T08:09:55.551Z,99189.69
2023-04-17T08:12:25.092Z,99196.41
2023-04-17T08:14:52.939Z,99200.13
2023-04-17T08:17:23.002Z,99202.78
2023-04-17T08:19:53.736Z,99197.94
2023-04-17T08:22:24.115Z,99195.09
2023-04-17T08:24:54.717Z,99198.31
2023-04-17T08:27:24.470Z,99205.81
2023-04-17T08:29:55.919Z,99203.13
2023-04-17T08:32:24.376Z,99209.09
2023-04-17T08:34:52.614Z,99201.78
2023-04-17T08:37:20.842Z,99202.41
2023-04-17T08:39:52.863Z,99211.66
2023-04-17T08:42:21.311Z,99214.56
2023-04-17T08:44:51.603Z,99216.41
2023-04-17T08:47:19.781Z,99219.38
2023-04-17T08:49:50.626Z,99216.59
2023-04-17T08:52:19.072Z,99217.41
2023-04-17T08:54:49.856Z,99217.53
2023-04-17T08:57:19.039Z,99215.66
2023-04-17T08:59:47.606Z,99216.28
2023-04-17T09:02:18.105Z,99218.38
2023-04-17T09:04:47.326Z,99223.78
2023-04-17T09:07:16.669Z,99223.53
2023-04-17T09:09:52.040Z,99220.94
2023-04-17T09:12:22.154Z,99221.66
2023-04-17T09:14:50.150Z,99219.31
2023-04-17T09:17:21.665Z,99217.81
2023-04-17T09:20:06.421Z,99217.56
2023-04-17T09:22:35.995Z,99219.03
2023-04-17T09:25:04.669Z,99217.63
2023-04-17T09:27:32.648Z,99224.44
2023-04-17T09:30:02.618Z,99222.03
2023-04-17T09:32:33.504Z,99218.25
2023-04-17T09:35:04.043Z,99227.44
2023-04-17T09:37:49.335Z,99220.09
2023-04-17T09:40:19.278Z,99234.66
2023-04-17T09:43:00.376Z,99230.81
2023-04-17T09:45:33.589Z,99228.66
2023-04-17T09:48:05.984Z,99228.91
2023-04-17T09:50:36.611Z,99232.84
2023-04-17T09:53:07.190Z,99233.25
2023-04-17T09:55:37.710Z,99232.59
2023-04-17T09:58:08.485Z,99230.47
2023-04-17T10:00:37.816Z,99233.78
2023-04-17T10:03:08.468Z,99231.41
2023-04-17T10:05:36.802Z,99235.63
2023-04-17T10:08:05.725Z,99220.09
2023-04-17T10:10:36.398Z,99220.22
2023-04-17T10:13:08.183Z,99215.97
2023-04-17T10:15:39.572Z,99218.59
2023-04-17T10:18:23.233Z,99209.31
2023-04-17T10:20:53.836Z,99213.84
2023-04-17T10:23:35.530Z,99201.69
2023-04-17T10:26:43.010Z,99208.50
2023-04-17T10:29:13.026Z,99205.88
2023-04-17T10:32:28.920Z,99200.25
2023-04-17T10:35:00.883Z,99192.25
2023-04-17T10:38:03.597Z,99194.19
2023-04-17T10:40:33.677Z,99189.16
2023-04-17T10:43:08.180Z,99195.72
2023-04-17T10:45:57.633Z,99184.09
2023-04-17T10:48:33.300Z,99193.25
2023-04-17T10:51:44.526Z,99181.28
2023-04-17T10:54:15.856Z,99182.41
2023-04-17T10:56:48.884Z,99184.91
2023-04-17T10:59:19.000Z,99177.75
2023-04-17T11:02:01.221Z,99175.47
2023-04-17T11:04:31.259Z,99176.31
2023-04-17T11:07:02.072Z,99173.84
2023-04-17T11:09:36.359Z,99177.88
2023-04-17T11:12:21.060Z,99167.06
2023-04-17T11:15:10.115Z,99166.50
2023-04-17T11:17:48.191Z,99164.09
2023-04-17T11:20:32.447Z,99169.13
2023-04-17T11:23:05.291Z,99168.03
2023-04-17T11:25:38.644Z,99163.66
2023-04-17T11:28:08.129Z,99169.94
2023-04-17T11:30:40.773Z,99167.28
2023-04-17T11:33:10.280Z,99168.03
2023-04-17T11:35:40.960Z,99163.78
2023-04-17T11:38:17.862Z,99163.69
2023-04-17T11:40:50.364Z,99162.44
2023-04-17T11:43:19.937Z,99162.84
2023-04-17T11:45:50.435Z,99165.09
2023-04-17T11:48:26.408Z,99169.00
2023-04-17T11:51:13.906Z,99170.50
2023-04-17T11:53:56.211Z,99167.28
2023-04-17T11:56:36.478Z,99163.19
2023-04-17T11:59:06.381Z,99161.19
2023-04-17T12:01:35.408Z,99173.44
2023-04-17T12:04:20.860Z,99170.66
2023-04-17T12:06:51.048Z,99165.34
2023-04-17T12:09:24.839Z,99174.88
2023-04-17T12:11:56.963Z,99169.69
2023-04-17T12:14:50.800Z,99164.78
2023-04-17T12:17:19.780Z,99170.16
2023-04-17T12:19:48.259Z,99169.41
2023-04-17T12:22:17.091Z,99166.09
2023-04-17T12:24:47.308Z,99168.41
2023-04-17T12:27:17.137Z,99164.50
2023-04-17T12:29:45.635Z,99171.63
2023-04-17T12:32:16.014Z,99166.22
2023-04-17T12:34:44.385Z,99161.94
2023-04-17T12:37:13.072Z,99164.84
2023-04-17T12:39:42.212Z,99157.84
2023-04-17T12:42:12.467Z,99161.88
2023-04-17T12:44:40.600Z,99159.19
2023-04-17T12:47:10.597Z,99157.34
2023-04-17T12:49:40.143Z,99157.94
2023-04-17T12:52:08.984Z,99161.72
2023-04-17T12:54:40.803Z,99152.94
2023-04-17T12:57:13.049Z,99162.94
2023-04-17T12:59:42.526Z,99165.28
2023-04-17T13:02:15.180Z,99151.34
2023-04-17T13:04:56.767Z,99158.56
2023-04-17T13:07:32.206Z,99152.41
2023-04-17T13:10:03.968Z,99160.19
2023-04-17T13:12:34.458Z,99167.31
2023-04-17T13:15:03.277Z,99148.22
2023-04-17T13:17:32.513Z,99156.66
2023-04-17T13:20:09.554Z,99149.94
2023-04-17T13:22:38.962Z,99153.81
2023-04-17T13:25:08.229Z,99152.50
2023-04-17T13:27:38.331Z,99151.56
2023-04-17T13:30:09.345Z,99150.22
2023-04-17T13:32:39.669Z,99150.84
2023-04-17T13:35:10.225Z,99142.31
2023-04-17T13:37:38.481Z,99155.03
2023-04-17T13:40:10.213Z,99141.75
2023-04-17T13:42:40.826Z,99134.75
2023-04-17T13:45:10.117Z,99135.97
2023-04-17T13:47:38.965Z,99136.31
2023-04-17T13:50:08.748Z,99129.84
2023-04-17T13:52:37.365Z,99137.31
2023-04-17T13:55:08.308Z,99134.47
2023-04-17T13:57:37.048Z,99133.50
2023-04-17T14:00:08.229Z,99129.34
2023-04-17T14:02:36.869Z,99132.88
2023-04-17T14:05:05.906Z,99123.69
2023-04-17T14:07:34.592Z,99117.28
2023-04-17T14:10:02.801Z,99122.50
2023-04-17T14:12:31.455Z,99116.59
2023-04-17T14:14:59.867Z,99126.25
2023-04-17T14:17:30.220Z,99124.97
2023-04-17T14:19:59.003Z,99116.75
2023-04-17T14:22:26.900Z,99117.72
2023-04-17T14:24:55.716Z,99129.47
2023-04-17T14:27:23.740Z,99123.78
2023-04-17T14:29:51.998Z,99125.75
2023-04-17T14:32:20.475Z,99120.47
2023-04-17T14:34:53.346Z,99117.88
2023-04-17T14:37:21.575Z,99122.00
2023-04-17T14:39:50.647Z,99125.38
2023-04-17T14:42:19.778Z,99122.50
2023-04-17T14:44:47.822Z,99119.38
2023-04-17T14:47:16.409Z,99122.75
2023-04-17T14:49:46.029Z,99121.31
2023-04-17T14:52:15.348Z,99124.56
2023-04-17T14:54:43.238Z,99114.75
2023-04-17T14:57:11.905Z,99118.28
2023-04-17T14:59:40.118Z,99116.75
2023-04-17T15:02:08.656Z,99116.75
2023-04-17T15:04:36.755Z,99124.47
2023-04-17T15:07:04.905Z,99113.16
2023-04-17T15:09:34.127Z,99118.75
2023-04-17T15:12:02.680Z,99120.13
2023-04-17T15:14:31.266Z,99116.44
2023-04-17T15:17:02.784Z,99116.63
2023-04-17T15:19:31.599Z,99122.53
2023-04-17T15:21:59.560Z,99112.94
2023-04-17T15:24:27.819Z,99116.56
2023-04-17T15:26:57.294Z,99115.25
2023-04-17T15:29:25.314Z,99114.06
2023-04-17T15:31:53.476Z,99112.59
2023-04-17T15:34:21.473Z,99117.78
2023-04-17T15:36:49.495Z,99113.44
2023-04-17T15:39:17.652Z,99119.91
2023-04-17T15:41:46.627Z,99119.47
2023-04-17T15:44:16.165Z,99111.06
2023-04-17T15:46:46.994Z,99119.19
2023-04-17T15:49:16.275Z,99122.66
2023-04-17T15:51:44.793Z,99121.63
2023-04-17T15:54:12.876Z,99113.13
2023-04-17T15:56:41.309Z,99124.66
2023-04-17T15:59:09.289Z,99120.47
2023-04-17T16:01:38.719Z,99123.25
2023-04-17T16:04:07.322Z,99114.72
2023-04-17T16:06:35.685Z,99121.09
2023-04-17T16:09:04.313Z,99128.28
2023-04-17T16:11:32.245Z,99128.28
2023-04-17T16:14:00.335Z,99119.03
2023-04-17T16:16:29.379Z,99117.47
2023-04-17T16:18:59.044Z,99123.75
2023-04-17T16:21:27.983Z,99122.59
2023-04-17T16:23:57.434Z,99128.72
2023-04-17T16:26:25.777Z,99135.09
2023-04-17T16:28:53.734Z,99119.44
2023-04-17T16:31:25.949Z,99120.38
2023-04-17T16:33:54.129Z,99121.19
2023-04-17T16:36:25.928Z,99124.00
2023-04-17T16:38:54.137Z,99125.69
2023-04-17T16:41:22.489Z,99127.50
2023-04-17T16:43:51.899Z,99125.09
2023-04-17T16:46:28.700Z,99124.34
2023-04-17T16:49:11.694Z,99126.59
2023-04-17T16:51:41.527Z,99129.56
2023-04-17T16:54:09.592Z,99136.16
2023-04-17T16:56:38.927Z,99127.59
2023-04-17T16:59:07.161Z,99137.81
2023-04-17T17:01:35.208Z,99139.09
2023-04-17T17:04:03.445Z,99138.59
2023-04-17T17:06:32.407Z,99145.88
2023-04-17T17:09:02.176Z,99144.69
2023-04-17T17:11:30.480Z,99148.53
2023-04-17T17:13:58.769Z,99136.59
2023-04-17T17:16:27.726Z,99146.38
2023-04-17T17:18:56.655Z,99146.97
2023-04-17T17:21:24.855Z,99153.41
2023-04-17T17:23:53.367Z,99149.41
2023-04-17T17:26:23.617Z,99150.59
2023-04-17T17:28:53.478Z,99153.75
2023-04-17T17:31:22.622Z,99155.19
2023-04-17T17:33:54.127Z,99151.03
2023-04-17T17:36:23.067Z,99160.50
2023-04-17T17:38:56.089Z,99157.22
2023-04-17T17:41:25.933Z,99156.63
2023-04-17T17:43:56.407Z,99159.03
2023-04-17T17:46:25.443Z,99159.81
2023-04-17T17:48:54.142Z,99158.66
2023-04-17T17:51:25.763Z,99165.97
2023-04-17T17:53:55.400Z,99167.13
2023-04-17T17:56:25.196Z,99169.16
2023-04-17T17:58:53.680Z,99165.13
2023-04-17T18:01:23.746Z,99171.13
2023-04-17T18:03:53.323Z,99164.47
2023-04-17T18:06:22.205Z,99169.31
2023-04-17T18:08:50.453Z,99172.81
2023-04-17T18:11:18.497Z,99167.84
2023-04-17T18:13:48.009Z,99172.50
2023-04-17T18:16:16.237Z,99174.19
2023-04-17T18:18:44.616Z,99174.09
2023-04-17T18:21:13.397Z,99176.94
2023-04-17T18:23:47.221Z,99175.56
2023-04-17T18:26:18.422Z,99174.19
2023-04-17T18:29:36.624Z,99178.00
2023-04-17T18:32:06.550Z,99181.69
2023-04-17T18:34:35.297Z,99181.16
2023-04-17T18:37:10.443Z,99185.81
2023-04-17T18:39:50.360Z,99180.09
2023-04-17T18:42:18.859Z,99185.13
2023-04-17T18:44:50.001Z,99184.28
2023-04-17T18:47:19.959Z,99192.13
2023-04-17T18:50:00.942Z,99192.06
2023-04-17T18:52:51.231Z,99202.03
2023-04-17T18:55:20.224Z,99192.47
2023-04-17T18:57:57.441Z,99197.56
2023-04-17T19:00:46.281Z,99200.03
2023-04-17T19:03:16.148Z,99207.06
2023-04-17T19:05:44.501Z,99210.31
2023-04-17T19:08:14.987Z,99206.00
2023-04-17T19:10:43.174Z,99217.03
2023-04-17T19:13:11.257Z,99214.00
2023-04-17T19:15:39.437Z,99214.03
2023-04-17T19:18:08.922Z,99217.03
2023-04-17T19:20:39.326Z,99213.91
2023-04-17T19:23:07.507Z,99213.13
2023-04-17T19:25:35.461Z,99217.22
2023-04-17T19:28:03.461Z,99212.53
2023-04-17T19:30:31.420Z,99203.28
2023-04-17T19:32:59.397Z,99205.25
2023-04-17T19:35:27.367Z,99213.75
2023-04-17T19:37:56.838Z,99211.22
2023-04-17T19:40:25.995Z,99218.25
2023-04-17T19:42:56.296Z,99206.28
2023-04-17T19:45:24.544Z,99222.22
2023-04-17T19:47:56.896Z,99207.28
2023-04-17T19:50:27.377Z,99211.38
2023-04-17T19:52:58.508Z,99210.16
2023-04-17T19:55:26.956Z,99211.44
2023-04-17T19:57:57.317Z,99217.88
2023-04-17T20:00:26.353Z,99212.00
2023-04-17T20:02:54.879Z,99212.81
2023-04-17T20:05:24.045Z,99210.31
2023-04-17T20:07:52.438Z,99211.34
2023-04-17T20:10:27.972Z,99217.00
2023-04-17T20:12:56.239Z,99217.28
2023-04-17T20:15:25.340Z,99207.66
2023-04-17T20:17:54.357Z,99206.63
2023-04-17T20:20:22.970Z,99205.50
2023-04-17T20:22:51.201Z,99204.19
2023-04-17T20:25:19.571Z,99209.06
2023-04-17T20:27:49.453Z,99204.41
2023-04-17T20:30:17.593Z,99199.75
2023-04-17T20:32:47.995Z,99206.06
2023-04-17T20:35:17.052Z,99204.00
2023-04-17T20:37:47.969Z,99208.53
2023-04-17T20:40:16.298Z,99205.00
2023-04-17T20:42:49.345Z,99212.56
2023-04-17T20:45:17.668Z,99213.38
2023-04-17T20:47:56.499Z,99209.16
2023-04-17T20:50:25.782Z,99212.09
2023-04-17T20:52:54.014Z,99205.88
2023-04-17T20:55:22.264Z,99205.47
2023-04-17T20:57:52.108Z,99202.09
2023-04-17T21:00:21.219Z,99199.94
2023-04-17T21:02:50.600Z,99208.03
2023-04-17T21:05:19.232Z,99197.00
2023-04-17T21:07:48.544Z,99188.53
2023-04-17T21:10:19.929Z,99189.19
2023-04-17T21:12:48.435Z,99183.06
2023-04-17T21:15:17.968Z,99194.94
2023-04-17T21:17:49.957Z,99192.94
2023-04-17T21:20:19.674Z,99193.50
2023-04-17T21:22:47.691Z,99187.72
2023-04-17T21:25:15.816Z,99185.09
2023-04-17T21:27:44.023Z,99188.69
2023-04-17T21:30:12.568Z,99185.19
2023-04-17T21:32:42.554Z,99191.13
2023-04-17T21:35:13.013Z,99186.88
2023-04-17T21:37:41.015Z,99190.91
2023-04-17T21:40:11.152Z,99187.56
2023-04-17T21:42:39.162Z,99183.06
2023-04-17T21:45:08.406Z,99181.28
2023-04-17T21:47:37.051Z,99185.31
2023-04-17T21:50:07.798Z,99182.88
2023-04-17T21:52:39.039Z,99172.97
2023-04-17T21:55:07.954Z,99178.34
2023-04-17T21:57:36.224Z,99181.53
2023-04-17T22:00:05.656Z,99172.63
2023-04-17T22:02:34.920Z,99170.53
2023-04-17T22:05:03.059Z,99171.75
2023-04-17T22:07:36.044Z,99171.16
2023-04-17T22:10:10.823Z,99174.66
2023-04-17T22:12:38.904Z,99160.25
2023-04-17T22:15:07.796Z,99162.50
2023-04-17T22:17:38.206Z,99161.75
2023-04-17T22:20:07.642Z,99159.84
2023-04-17T22:22:37.435Z,99166.28
2023-04-17T22:25:06.997Z,99162.69
2023-04-17T22:27:35.495Z,99160.25
2023-04-17T22:30:03.878Z,99161.22
2023-04-17T22:32:32.119Z,99158.56
2023-04-17T22:35:00.385Z,99158.81
2023-04-17T22:37:28.379Z,99156.13
2023-04-17T22:40:00.121Z,99155.75
2023-04-17T22:42:28.299Z,99163.00
2023-04-17T22:44:56.325Z,99162.47
2023-04-17T22:47:24.352Z,99155.16
2023-04-17T22:49:52.569Z,99157.22
2023-04-17T22:52:20.691Z,99156.69
2023-04-17T22:54:48.861Z,99164.03
2023-04-17T22:57:18.391Z,99153.63
2023-04-17T22:59:46.401Z,99152.91
2023-04-17T23:02:14.575Z,99155.16
2023-04-17T23:04:42.739Z,99155.13
2023-04-17T23:07:10.905Z,99151.56
2023-04-17T23:09:39.164Z,99153.56
2023-04-17T23:12:08.185Z,99150.66
2023-04-17T23:14:37.832Z,99148.75
2023-04-17T23:17:06.530Z,99154.59
2023-04-17T23:19:34.459Z,99151.41
2023-04-17T23:22:02.695Z,99150.81
2023-04-17T23:24:33.989Z,99146.22
2023-04-17T23:27:02.546Z,99146.00
2023-04-17T23:29:30.750Z,99150.34
2023-04-17T23:32:00.510Z,99140.09
2023-04-17T23:34:28.555Z,99146.88
2023-04-17T23:36:56.487Z,99145.75
2023-04-17T23:39:27.505Z,99143.25
2023-04-17T23:42:00.592Z,99149.78
2023-04-17T23:44:28.798Z,99140.81
2023-04-17T23:46:57.269Z,99131.13
2023-04-17T23:49:28.019Z,99133.13
2023-04-17T23:51:56.330Z,99130.19
2023-04-17T23:54:24.645Z,99129.63
2023-04-17T23:56:53.567Z,99136.13
2023-04-17T23:59:21.683Z,99135.56
